Time;durP1;ratioP1;P1;durP2;ratioP2;P2;SDS_P1;SDS_P2;PMS_P1;PMS_P2;Temp;Humidity;BMP_temperature;BMP_pressure;BME280_temperature;BME280_humidity;BME280_pressure;Samples;Min_cycle;Max_cycle;Signal;HPM_P1;HPM_P2
2023/02/04 00:00:44;;;;;;;;;;;8.90;83.00;;;;;;5095169;28;19915;-35
2023/02/04 00:03:10;;;;;;;;;;;8.90;83.10;;;;;;5095184;28;19908;-30
2023/02/04 00:05:36;;;;;;;;;;;8.90;82.90;;;;;;5095244;28;19959;-32
2023/02/04 00:08:02;;;;;;;;;;;8.80;83.00;;;;;;5095440;28;19908;-26
2023/02/04 00:10:27;;;;;;;;;;;8.80;83.00;;;;;;5095005;28;19974;-37
2023/02/04 00:12:53;;;;;;;;;;;8.80;83.10;;;;;;5094825;28;20238;-32
2023/02/04 00:15:18;;;;;;;;;;;8.80;83.10;;;;;;5094453;28;19908;-30
2023/02/04 00:17:44;;;;;;;;;;;8.80;83.20;;;;;;5095092;28;19914;-30
2023/02/04 00:20:12;;;;;;;;;;;8.80;83.20;;;;;;5094739;28;20321;-28
2023/02/04 00:22:37;;;;;;;;;;;8.80;83.20;;;;;;5094765;28;19908;-29
2023/02/04 00:25:03;;;;;;;;;;;8.80;83.20;;;;;;5094520;28;19928;-29
2023/02/04 00:27:28;;;;;;;;;;;8.80;83.30;;;;;;5095104;28;20369;-30
2023/02/04 00:29:54;;;;;;;;;;;8.80;83.40;;;;;;5094607;28;19909;-32
2023/02/04 00:32:19;;;;;;;;;;;8.80;83.40;;;;;;5094677;28;19939;-34
2023/02/04 00:34:45;;;;;;;;;;;8.80;83.40;;;;;;5094524;28;19908;-32
2023/02/04 00:37:10;;;;;;;;;;;8.80;83.40;;;;;;5094368;28;20362;-30
2023/02/04 00:39:35;;;;;;;;;;;8.70;83.50;;;;;;5094302;28;19936;-27
2023/02/04 00:42:01;;;;;;;;;;;8.70;83.60;;;;;;5094348;28;20302;-31
2023/02/04 00:44:26;;;;;;;;;;;8.80;83.80;;;;;;5094314;28;19955;-28
2023/02/04 00:46:52;;;;;;;;;;;8.70;83.80;;;;;;5094459;28;20333;-32
2023/02/04 00:49:17;;;;;;;;;;;8.70;83.80;;;;;;5094224;28;19926;-32
2023/02/04 00:51:46;;;;;;;;;;;8.70;83.80;;;;;;5093992;28;20355;-33
2023/02/04 00:54:11;;;;;;;;;;;8.70;83.90;;;;;;5092681;28;19936;-31
2023/02/04 00:56:37;;;;;;;;;;;8.70;83.90;;;;;;5094268;28;20350;-31
2023/02/04 00:59:02;;;;;;;;;;;8.70;83.80;;;;;;5093717;28;20338;-33
2023/02/04 01:01:28;;;;;;;;;;;8.70;83.80;;;;;;5093998;28;19915;-32
2023/02/04 01:03:54;;;;;;;;;;;8.70;83.90;;;;;;5093942;28;19923;-31
2023/02/04 01:06:19;;;;;;;;;;;8.70;83.80;;;;;;5094075;28;19908;-31
2023/02/04 01:08:45;;;;;;;;;;;8.70;83.90;;;;;;5093872;28;19908;-32
2023/02/04 01:11:10;;;;;;;;;;;8.70;83.80;;;;;;5093843;28;19908;-32
2023/02/04 01:13:36;;;;;;;;;;;8.70;83.90;;;;;;5094066;28;20332;-30
2023/02/04 01:16:01;;;;;;;;;;;8.70;83.90;;;;;;5094067;28;20326;-34
2023/02/04 01:18:27;;;;;;;;;;;8.60;84.00;;;;;;5093965;28;19912;-30
2023/02/04 01:20:52;;;;;;;;;;;8.60;84.10;;;;;;5093553;28;19962;-34
2023/02/04 01:23:18;;;;;;;;;;;8.60;84.20;;;;;;5093359;28;20329;-27
2023/02/04 01:25:43;;;;;;;;;;;8.50;84.20;;;;;;5093490;28;19912;-32
2023/02/04 01:28:09;;;;;;;;;;;8.50;84.30;;;;;;5093457;28;19915;-30
2023/02/04 01:30:34;;;;;;;;;;;8.40;84.30;;;;;;5093447;28;19912;-33
2023/02/04 01:33:00;;;;;;;;;;;8.40;84.30;;;;;;5093428;28;19943;-27
2023/02/04 01:35:25;;;;;;;;;;;8.40;84.40;;;;;;5093507;28;19908;-29
2023/02/04 01:37:50;;;;;;;;;;;8.40;84.50;;;;;;5093220;28;19936;-30
2023/02/04 01:40:16;;;;;;;;;;;8.40;84.50;;;;;;5093131;28;19908;-31
2023/02/04 01:42:42;;;;;;;;;;;8.40;84.40;;;;;;5091716;28;20356;-28
2023/02/04 01:45:07;;;;;;;;;;;8.40;84.40;;;;;;5092973;28;19927;-31
2023/02/04 01:47:33;;;;;;;;;;;8.40;84.40;;;;;;5093327;28;20439;-33
2023/02/04 01:49:59;;;;;;;;;;;8.40;84.30;;;;;;5093029;28;19908;-28
2023/02/04 01:52:25;;;;;;;;;;;8.40;84.90;;;;;;5092960;28;19908;-33
2023/02/04 01:54:51;;;;;;;;;;;8.40;84.30;;;;;;5093195;28;19908;-30
2023/02/04 01:57:17;;;;;;;;;;;8.40;84.30;;;;;;5092919;28;20222;-29
2023/02/04 01:59:46;;;;;;;;;;;8.40;84.30;;;;;;5093174;28;19962;-35
2023/02/04 02:02:41;;;;;;;;;;;8.40;84.40;;;;;;5093133;28;19912;-32
2023/02/04 02:05:08;;;;;;;;;;;8.40;84.50;;;;;;5091144;28;19916;-30
2023/02/04 02:07:34;;;;;;;;;;;8.30;84.50;;;;;;5092722;28;20352;-30
2023/02/04 02:10:00;;;;;;;;;;;8.30;84.60;;;;;;5092820;28;19915;-33
2023/02/04 02:12:25;;;;;;;;;;;8.30;84.50;;;;;;5092953;28;20355;-31
2023/02/04 02:14:51;;;;;;;;;;;8.30;84.50;;;;;;5092714;28;20257;-31
2023/02/04 02:17:16;;;;;;;;;;;8.30;84.60;;;;;;5091129;28;19908;-31
2023/02/04 02:19:42;;;;;;;;;;;8.30;84.60;;;;;;5092734;28;19915;-31
2023/02/04 02:22:28;;;;;;;;;;;8.20;84.60;;;;;;5092456;28;20312;-35
2023/02/04 02:24:53;;;;;;;;;;;8.20;84.70;;;;;;5092274;28;19920;-29
2023/02/04 02:27:19;;;;;;;;;;;8.20;84.80;;;;;;5092677;28;19908;-33
2023/02/04 02:29:44;;;;;;;;;;;8.20;84.80;;;;;;5092859;28;19908;-29
2023/02/04 02:32:11;;;;;;;;;;;8.20;84.80;;;;;;5091136;28;19916;-30
2023/02/04 02:34:38;;;;;;;;;;;8.20;85.50;;;;;;5092461;28;19922;-28
2023/02/04 02:37:05;;;;;;;;;;;8.10;84.90;;;;;;5092672;28;20362;-33
2023/02/04 02:39:30;;;;;;;;;;;8.20;85.10;;;;;;5091915;28;19908;-31
2023/02/04 02:41:56;;;;;;;;;;;8.10;85.10;;;;;;5092643;28;20279;-28
2023/02/04 02:44:22;;;;;;;;;;;8.10;85.10;;;;;;5092277;28;19916;-31
2023/02/04 02:46:47;;;;;;;;;;;8.00;85.10;;;;;;5092285;28;19912;-28
2023/02/04 02:49:14;;;;;;;;;;;8.10;85.30;;;;;;5092287;28;19908;-36
2023/02/04 02:51:40;;;;;;;;;;;8.00;85.20;;;;;;5092451;28;20573;-35
2023/02/04 02:54:11;;;;;;;;;;;8.00;85.30;;;;;;5092247;28;19909;-30
2023/02/04 02:56:36;;;;;;;;;;;8.00;85.30;;;;;;5092384;28;19916;-31
2023/02/04 02:59:15;;;;;;;;;;;8.00;85.40;;;;;;5092296;28;19908;-30
2023/02/04 03:01:41;;;;;;;;;;;7.90;85.40;;;;;;5092130;28;19908;-31
2023/02/04 03:04:07;;;;;;;;;;;7.90;85.40;;;;;;5092176;28;19912;-27
2023/02/04 03:06:32;;;;;;;;;;;7.90;86.10;;;;;;5092438;28;19966;-31
2023/02/04 03:08:58;;;;;;;;;;;7.90;85.50;;;;;;5092053;28;20294;-32
2023/02/04 03:11:25;;;;;;;;;;;7.90;85.60;;;;;;5092195;28;20229;-32
2023/02/04 03:13:51;;;;;;;;;;;7.80;85.60;;;;;;5092056;28;19914;-30
2023/02/04 03:16:17;;;;;;;;;;;7.80;85.70;;;;;;5092088;28;19908;-27
2023/02/04 03:18:42;;;;;;;;;;;7.80;85.80;;;;;;5092241;28;19909;-29
2023/02/04 03:21:08;;;;;;;;;;;7.80;85.80;;;;;;5091908;28;19908;-31
2023/02/04 03:23:34;;;;;;;;;;;7.80;85.80;;;;;;5091780;28;19927;-31
2023/02/04 03:26:00;;;;;;;;;;;7.80;85.80;;;;;;5091939;28;20394;-27
2023/02/04 03:28:26;;;;;;;;;;;7.80;85.80;;;;;;5092269;28;19908;-31
2023/02/04 03:30:54;;;;;;;;;;;7.80;85.80;;;;;;5092169;28;19912;-28
2023/02/04 03:33:23;;;;;;;;;;;7.80;85.80;;;;;;5092228;28;19909;-33
2023/02/04 03:35:50;;;;;;;;;;;7.70;85.70;;;;;;5092119;28;19912;-31
2023/02/04 03:38:16;;;;;;;;;;;7.70;85.80;;;;;;5092194;28;19922;-28
2023/02/04 03:40:41;;;;;;;;;;;7.70;85.90;;;;;;5091942;28;20271;-27
2023/02/04 03:43:07;;;;;;;;;;;7.70;86.60;;;;;;5091741;28;19983;-28
2023/02/04 03:45:32;;;;;;;;;;;7.60;86.00;;;;;;5092036;28;19916;-28
2023/02/04 03:47:57;;;;;;;;;;;7.60;86.10;;;;;;5091744;28;19912;-31
2023/02/04 03:50:23;;;;;;;;;;;7.60;86.10;;;;;;5092686;28;19908;-32
2023/02/04 03:52:50;;;;;;;;;;;7.50;86.20;;;;;;5095275;28;20386;-32
2023/02/04 03:55:16;;;;;;;;;;;7.50;86.20;;;;;;5095480;28;19908;-27
2023/02/04 03:57:41;;;;;;;;;;;7.50;86.30;;;;;;5095498;28;19916;-29
2023/02/04 04:00:07;;;;;;;;;;;7.50;86.40;;;;;;5095242;28;20042;-32
2023/02/04 04:02:32;;;;;;;;;;;7.40;86.40;;;;;;5095460;28;19908;-31
2023/02/04 04:04:58;;;;;;;;;;;7.40;86.50;;;;;;5095110;28;19923;-30
2023/02/04 04:07:23;;;;;;;;;;;7.40;86.50;;;;;;5094981;28;20319;-29
2023/02/04 04:09:49;;;;;;;;;;;7.40;86.60;;;;;;5094914;28;19908;-28
2023/02/04 04:12:14;;;;;;;;;;;7.30;86.60;;;;;;5094887;28;19934;-28
2023/02/04 04:14:40;;;;;;;;;;;7.30;86.60;;;;;;5094719;28;20302;-27
2023/02/04 04:17:05;;;;;;;;;;;7.30;86.70;;;;;;5094811;28;19908;-31
2023/02/04 04:19:32;;;;;;;;;;;7.30;86.70;;;;;;5094871;28;19915;-31
2023/02/04 04:21:57;;;;;;;;;;;7.30;86.80;;;;;;5095040;28;20283;-34
2023/02/04 04:24:23;;;;;;;;;;;7.30;86.80;;;;;;5094563;28;19924;-28
2023/02/04 04:26:48;;;;;;;;;;;7.30;86.90;;;;;;5094804;28;20344;-32
2023/02/04 04:29:14;;;;;;;;;;;7.20;86.90;;;;;;5094697;28;19915;-33
2023/02/04 04:31:39;;;;;;;;;;;7.20;86.90;;;;;;5094495;28;19915;-29
2023/02/04 04:34:05;;;;;;;;;;;7.20;86.90;;;;;;5094590;28;19908;-31
2023/02/04 04:36:30;;;;;;;;;;;7.20;86.90;;;;;;5094608;28;19909;-28
2023/02/04 04:38:55;;;;;;;;;;;7.20;87.00;;;;;;5094247;28;20466;-32
2023/02/04 04:41:21;;;;;;;;;;;7.20;87.00;;;;;;5094316;28;19912;-31
2023/02/04 04:43:46;;;;;;;;;;;7.20;87.00;;;;;;5094259;28;19932;-40
2023/02/04 04:46:12;;;;;;;;;;;7.20;87.00;;;;;;5094274;28;20282;-29
2023/02/04 04:48:37;;;;;;;;;;;7.30;87.10;;;;;;5094163;28;19912;-26
2023/02/04 04:51:03;;;;;;;;;;;7.20;87.10;;;;;;5094059;28;19908;-28
2023/02/04 04:53:29;;;;;;;;;;;7.30;87.10;;;;;;5094152;28;19950;-29
2023/02/04 04:55:54;;;;;;;;;;;7.30;87.10;;;;;;5094260;28;19908;-27
2023/02/04 04:58:20;;;;;;;;;;;7.30;87.10;;;;;;5093893;28;19916;-26
2023/02/04 05:00:45;;;;;;;;;;;7.30;87.20;;;;;;5093700;28;20371;-30
2023/02/04 05:03:10;;;;;;;;;;;7.30;87.20;;;;;;5093983;28;19953;-30
2023/02/04 05:05:39;;;;;;;;;;;7.30;87.20;;;;;;5093726;28;19912;-31
2023/02/04 05:08:06;;;;;;;;;;;7.30;87.20;;;;;;5094022;28;19915;-30
2023/02/04 05:10:31;;;;;;;;;;;7.40;87.20;;;;;;5092285;28;19920;-34
2023/02/04 05:12:57;;;;;;;;;;;7.40;87.20;;;;;;5093762;28;19912;-31
2023/02/04 05:15:22;;;;;;;;;;;7.40;87.20;;;;;;5093736;28;19904;-30
2023/02/04 05:17:48;;;;;;;;;;;7.50;87.20;;;;;;5093558;28;19908;-35
2023/02/04 05:20:13;;;;;;;;;;;7.50;87.10;;;;;;5092335;28;19908;-29
2023/02/04 05:22:39;;;;;;;;;;;7.50;87.10;;;;;;5093480;28;19908;-35
2023/02/04 05:25:04;;;;;;;;;;;7.50;87.10;;;;;;5093175;28;19921;-31
2023/02/04 05:27:30;;;;;;;;;;;7.60;87.10;;;;;;5093489;28;20054;-30
2023/02/04 05:29:55;;;;;;;;;;;7.60;87.10;;;;;;5093442;28;19912;-28
2023/02/04 05:32:21;;;;;;;;;;;7.60;87.00;;;;;;5093345;28;20014;-27
2023/02/04 05:34:46;;;;;;;;;;;7.60;87.00;;;;;;5093233;28;20310;-29
2023/02/04 05:37:14;;;;;;;;;;;7.60;87.00;;;;;;5093284;28;19971;-30
2023/02/04 05:39:39;;;;;;;;;;;7.50;87.00;;;;;;5093312;28;19927;-27
2023/02/04 05:42:05;;;;;;;;;;;7.50;87.10;;;;;;5093101;28;19912;-28
2023/02/04 05:44:30;;;;;;;;;;;7.50;87.20;;;;;;5093185;28;19916;-29
2023/02/04 05:46:56;;;;;;;;;;;7.50;87.30;;;;;;5092978;28;19916;-27
2023/02/04 05:49:22;;;;;;;;;;;7.50;87.30;;;;;;5093075;28;19959;-35
2023/02/04 05:51:48;;;;;;;;;;;7.50;87.30;;;;;;5092925;28;19923;-29
2023/02/04 05:54:18;;;;;;;;;;;7.50;87.30;;;;;;5092912;28;19916;-35
2023/02/04 05:56:44;;;;;;;;;;;7.50;87.40;;;;;;5092840;28;19912;-31
2023/02/04 05:59:09;;;;;;;;;;;7.50;87.40;;;;;;5092922;28;20421;-30
2023/02/04 06:01:35;;;;;;;;;;;7.50;87.50;;;;;;5092743;28;19932;-31
2023/02/04 06:04:00;;;;;;;;;;;7.40;87.50;;;;;;5092688;28;19923;-32
2023/02/04 06:06:26;;;;;;;;;;;7.50;87.60;;;;;;5092437;28;19912;-28
2023/02/04 06:08:51;;;;;;;;;;;7.50;87.50;;;;;;5092640;28;19920;-31
2023/02/04 06:11:16;;;;;;;;;;;7.50;87.50;;;;;;5092472;28;19912;-28
2023/02/04 06:13:42;;;;;;;;;;;7.50;87.50;;;;;;5092015;28;19912;-29
2023/02/04 06:16:07;;;;;;;;;;;7.50;87.50;;;;;;5092471;28;19912;-29
2023/02/04 06:18:33;;;;;;;;;;;7.50;87.50;;;;;;5092474;28;20330;-30
2023/02/04 06:20:58;;;;;;;;;;;7.50;87.50;;;;;;5092326;28;19998;-28
2023/02/04 06:23:24;;;;;;;;;;;7.60;87.50;;;;;;5092229;28;20268;-28
2023/02/04 06:25:49;;;;;;;;;;;7.60;87.50;;;;;;5092281;28;19923;-27
2023/02/04 06:28:15;;;;;;;;;;;7.60;87.50;;;;;;5092174;28;19912;-30
2023/02/04 06:30:42;;;;;;;;;;;7.60;87.50;;;;;;5092157;28;19912;-28
2023/02/04 06:33:08;;;;;;;;;;;7.60;87.50;;;;;;5092076;28;19918;-28
2023/02/04 06:35:33;;;;;;;;;;;7.70;87.50;;;;;;5092092;28;19912;-32
2023/02/04 06:37:59;;;;;;;;;;;7.70;87.50;;;;;;5092114;28;19919;-32
2023/02/04 06:40:25;;;;;;;;;;;7.70;87.50;;;;;;5091876;28;20309;-31
2023/02/04 06:42:50;;;;;;;;;;;7.70;87.50;;;;;;5091906;28;19912;-29
2023/02/04 06:45:16;;;;;;;;;;;7.70;87.50;;;;;;5091175;28;20193;-29
2023/02/04 06:47:41;;;;;;;;;;;7.70;87.50;;;;;;5091334;28;19912;-40
2023/02/04 06:50:07;;;;;;;;;;;7.70;87.50;;;;;;5091363;28;19927;-30
2023/02/04 06:52:32;;;;;;;;;;;7.70;87.50;;;;;;5091423;28;20018;-35
2023/02/04 06:54:58;;;;;;;;;;;7.70;87.40;;;;;;5091371;28;19939;-32
2023/02/04 06:57:23;;;;;;;;;;;7.70;87.40;;;;;;5091390;28;19912;-27
2023/02/04 06:59:49;;;;;;;;;;;7.70;87.50;;;;;;5091369;28;20438;-28
2023/02/04 07:02:14;;;;;;;;;;;7.80;87.50;;;;;;5091420;28;19919;-28
2023/02/04 07:04:42;;;;;;;;;;;7.80;87.40;;;;;;5091313;28;19916;-32
2023/02/04 07:07:08;;;;;;;;;;;7.80;87.40;;;;;;5091305;28;19912;-25
2023/02/04 07:09:34;;;;;;;;;;;7.90;87.40;;;;;;5091323;28;20421;-32
2023/02/04 07:11:59;;;;;;;;;;;7.90;87.40;;;;;;5091117;28;19912;-38
2023/02/04 07:14:25;;;;;;;;;;;7.90;87.30;;;;;;5091203;28;19923;-29
2023/02/04 07:16:50;;;;;;;;;;;7.90;87.30;;;;;;5091161;28;19959;-28
2023/02/04 07:19:16;;;;;;;;;;;7.90;87.40;;;;;;5091159;28;19957;-32
2023/02/04 07:21:41;;;;;;;;;;;7.90;87.40;;;;;;5091164;28;19920;-33
2023/02/04 07:24:06;;;;;;;;;;;7.90;87.40;;;;;;5091318;28;19943;-33
2023/02/04 07:26:33;;;;;;;;;;;7.90;87.40;;;;;;5094946;28;20048;-27
2023/02/04 07:28:58;;;;;;;;;;;7.90;87.40;;;;;;5094869;28;19964;-27
2023/02/04 07:31:24;;;;;;;;;;;7.90;87.40;;;;;;5094845;28;20427;-32
2023/02/04 07:33:49;;;;;;;;;;;8.00;87.40;;;;;;5094778;28;19912;-29
2023/02/04 07:36:15;;;;;;;;;;;8.00;87.40;;;;;;5094893;28;20375;-30
2023/02/04 07:38:40;;;;;;;;;;;8.00;87.40;;;;;;5094823;28;20003;-29
2023/02/04 07:41:06;;;;;;;;;;;7.90;87.40;;;;;;5094885;28;19916;-30
2023/02/04 07:43:31;;;;;;;;;;;8.00;87.40;;;;;;5094854;28;19912;-28
2023/02/04 07:45:57;;;;;;;;;;;8.00;87.50;;;;;;5094552;28;20425;-29
2023/02/04 07:48:22;;;;;;;;;;;8.00;87.50;;;;;;5094685;28;19920;-41
2023/02/04 07:50:48;;;;;;;;;;;8.00;87.50;;;;;;5094631;28;19923;-32
2023/02/04 07:53:13;;;;;;;;;;;8.10;87.50;;;;;;5094898;28;20007;-31
2023/02/04 07:55:39;;;;;;;;;;;8.10;87.40;;;;;;5094472;28;19955;-29
2023/02/04 07:58:04;;;;;;;;;;;8.10;87.40;;;;;;5094436;28;19912;-30
2023/02/04 08:00:30;;;;;;;;;;;8.10;87.30;;;;;;5094414;28;19923;-31
2023/02/04 08:02:55;;;;;;;;;;;8.20;87.30;;;;;;5094317;28;20399;-32
2023/02/04 08:05:21;;;;;;;;;;;8.20;87.40;;;;;;5094181;28;19916;-31
2023/02/04 08:07:46;;;;;;;;;;;8.20;87.30;;;;;;5094373;28;19973;-32
2023/02/04 08:10:12;;;;;;;;;;;8.20;87.30;;;;;;5094147;28;20427;-29
2023/02/04 08:12:37;;;;;;;;;;;8.10;87.20;;;;;;5094036;28;19997;-32
2023/02/04 08:15:03;;;;;;;;;;;8.20;87.30;;;;;;5093915;28;19919;-29
2023/02/04 08:17:29;;;;;;;;;;;8.20;87.30;;;;;;5093896;28;19912;-30
2023/02/04 08:19:55;;;;;;;;;;;8.20;87.30;;;;;;5094131;28;19930;-31
2023/02/04 08:22:20;;;;;;;;;;;8.20;87.30;;;;;;5094058;28;19918;-32
2023/02/04 08:24:46;;;;;;;;;;;8.30;87.40;;;;;;5093616;28;20360;-29
2023/02/04 08:27:12;;;;;;;;;;;8.30;87.30;;;;;;5093742;28;19965;-28
2023/02/04 08:29:37;;;;;;;;;;;8.30;87.20;;;;;;5093721;28;20018;-33
2023/02/04 08:32:03;;;;;;;;;;;8.40;87.20;;;;;;5093687;28;20417;-33
2023/02/04 08:34:29;;;;;;;;;;;8.40;87.10;;;;;;5093952;28;19912;-32
2023/02/04 08:36:54;;;;;;;;;;;8.50;87.10;;;;;;5092810;28;19913;-27
2023/02/04 08:39:20;;;;;;;;;;;8.50;87.20;;;;;;5093406;28;19912;-30
2023/02/04 08:41:46;;;;;;;;;;;8.50;87.00;;;;;;5093587;28;20322;-35
2023/02/04 08:44:12;;;;;;;;;;;8.60;87.00;;;;;;5093793;28;20089;-30
2023/02/04 08:46:37;;;;;;;;;;;8.60;87.00;;;;;;5093483;28;20354;-34
2023/02/04 08:49:03;;;;;;;;;;;8.70;87.00;;;;;;5093353;28;20002;-30
2023/02/04 08:51:28;;;;;;;;;;;8.70;87.00;;;;;;5093521;28;19912;-29
2023/02/04 08:53:54;;;;;;;;;;;8.80;86.90;;;;;;5093546;28;19912;-32
2023/02/04 08:56:19;;;;;;;;;;;8.80;86.80;;;;;;5093235;28;19912;-31
2023/02/04 08:58:46;;;;;;;;;;;8.90;86.90;;;;;;5093028;28;19920;-31
2023/02/04 09:01:11;;;;;;;;;;;8.90;86.80;;;;;;5093092;28;19915;-28
2023/02/04 09:03:37;;;;;;;;;;;8.90;86.80;;;;;;5093109;28;20473;-29
2023/02/04 09:06:04;;;;;;;;;;;8.90;86.70;;;;;;5092902;28;20259;-32
2023/02/04 09:08:29;;;;;;;;;;;8.90;86.70;;;;;;5092770;28;20020;-31
2023/02/04 09:10:55;;;;;;;;;;;9.00;86.80;;;;;;5092707;28;19912;-29
2023/02/04 09:13:20;;;;;;;;;;;9.00;86.70;;;;;;5092640;28;19913;-31
2023/02/04 09:15:46;;;;;;;;;;;9.10;86.60;;;;;;5092843;28;19962;-29
2023/02/04 09:18:16;;;;;;;;;;;9.10;86.60;;;;;;5092725;28;20276;-32
2023/02/04 09:20:43;;;;;;;;;;;9.10;86.60;;;;;;5092740;28;19918;-26
2023/02/04 09:23:10;;;;;;;;;;;9.20;86.50;;;;;;5092627;28;19919;-28
2023/02/04 09:25:37;;;;;;;;;;;9.20;86.40;;;;;;5092391;28;20391;-33
2023/02/04 09:28:02;;;;;;;;;;;9.20;86.30;;;;;;5092636;28;19919;-29
2023/02/04 09:30:28;;;;;;;;;;;9.20;86.30;;;;;;5092508;28;19916;-31
2023/02/04 09:32:53;;;;;;;;;;;9.20;86.20;;;;;;5092647;28;19912;-28
2023/02/04 09:35:19;;;;;;;;;;;9.20;86.10;;;;;;5092434;28;20014;-34
2023/02/04 09:37:44;;;;;;;;;;;9.20;86.20;;;;;;5092576;28;19976;-37
2023/02/04 09:40:14;;;;;;;;;;;9.20;86.20;;;;;;5092333;28;20016;-31
2023/02/04 09:42:39;;;;;;;;;;;9.20;86.20;;;;;;5092358;28;19912;-31
2023/02/04 09:45:05;;;;;;;;;;;9.20;86.30;;;;;;5092281;28;20624;-27
2023/02/04 09:47:31;;;;;;;;;;;9.20;86.10;;;;;;5091616;28;19918;-27
2023/02/04 09:49:57;;;;;;;;;;;9.20;86.20;;;;;;5092144;28;20007;-32
2023/02/04 09:52:23;;;;;;;;;;;9.20;86.20;;;;;;5092351;28;19916;-32
2023/02/04 09:54:49;;;;;;;;;;;9.30;86.00;;;;;;5092143;28;19920;-29
2023/02/04 09:57:16;;;;;;;;;;;9.30;85.90;;;;;;5092175;28;19953;-33
2023/02/04 09:59:43;;;;;;;;;;;9.40;85.90;;;;;;5092295;28;20009;-30
2023/02/04 10:02:21;;;;;;;;;;;9.40;85.90;;;;;;5092232;28;19962;-26
2023/02/04 10:04:46;;;;;;;;;;;9.40;85.90;;;;;;5092184;28;20379;-27
2023/02/04 10:07:12;;;;;;;;;;;9.50;85.60;;;;;;5092173;28;19938;-28
2023/02/04 10:09:38;;;;;;;;;;;9.60;85.70;;;;;;5092225;28;20015;-33
2023/02/04 10:12:05;;;;;;;;;;;9.60;85.70;;;;;;5090656;28;19912;-28
2023/02/04 10:14:30;;;;;;;;;;;9.70;85.50;;;;;;5091854;28;19920;-32
2023/02/04 10:16:57;;;;;;;;;;;9.70;85.30;;;;;;5091915;28;19912;-33
2023/02/04 10:19:23;;;;;;;;;;;9.70;85.30;;;;;;5091814;28;19998;-33
2023/02/04 10:21:49;;;;;;;;;;;9.70;85.40;;;;;;5091846;28;19965;-27
2023/02/04 10:24:29;;;;;;;;;;;9.80;85.50;;;;;;5091402;28;19920;-27
2023/02/04 10:27:06;;;;;;;;;;;9.80;85.40;;;;;;5091569;28;19912;-35
2023/02/04 10:29:31;;;;;;;;;;;9.90;85.20;;;;;;5091997;28;19916;-29
2023/02/04 10:31:56;;;;;;;;;;;10.00;85.30;;;;;;5092089;28;19913;-30
2023/02/04 10:34:23;;;;;;;;;;;10.00;85.30;;;;;;5091866;28;19955;-30
2023/02/04 10:36:52;;;;;;;;;;;10.00;85.20;;;;;;5091857;28;20348;-31
2023/02/04 10:39:18;;;;;;;;;;;10.10;85.10;;;;;;5091847;28;19926;-37
2023/02/04 10:41:48;;;;;;;;;;;10.10;85.10;;;;;;5091808;28;19998;-34
2023/02/04 10:44:15;;;;;;;;;;;10.20;85.10;;;;;;5091693;28;20330;-33
2023/02/04 10:46:41;;;;;;;;;;;10.20;84.90;;;;;;5091614;28;19913;-29
2023/02/04 10:49:27;;;;;;;;;;;10.30;84.80;;;;;;5091909;28;20381;-31
2023/02/04 10:51:52;;;;;;;;;;;10.30;84.80;;;;;;5091119;28;19918;-28
2023/02/04 10:54:31;;;;;;;;;;;10.40;84.70;;;;;;5091572;28;19920;-31
2023/02/04 10:57:05;;;;;;;;;;;10.50;84.50;;;;;;5090230;28;19912;-31
2023/02/04 10:59:31;;;;;;;;;;;10.50;84.30;;;;;;5093239;28;19918;-29
2023/02/04 11:01:59;;;;;;;;;;;10.50;84.30;;;;;;5095866;28;20188;-28
2023/02/04 11:04:25;;;;;;;;;;;10.60;84.40;;;;;;5095686;28;19957;-33
2023/02/04 11:06:51;;;;;;;;;;;10.60;84.20;;;;;;5095675;28;19927;-34
2023/02/04 11:09:17;;;;;;;;;;;10.70;84.00;;;;;;5095579;28;20193;-32
2023/02/04 11:11:47;;;;;;;;;;;10.80;83.90;;;;;;5095456;28;20360;-30
2023/02/04 11:14:27;;;;;;;;;;;10.80;83.90;;;;;;5095447;28;20414;-26
2023/02/04 11:16:53;;;;;;;;;;;10.90;83.80;;;;;;5095346;28;19950;-28
2023/02/04 11:19:30;;;;;;;;;;;10.90;83.60;;;;;;5095559;28;19942;-29
2023/02/04 11:22:03;;;;;;;;;;;11.00;83.50;;;;;;5095490;28;20359;-32
2023/02/04 11:24:32;;;;;;;;;;;11.00;83.10;;;;;;5094936;28;19928;-33
2023/02/04 11:27:16;;;;;;;;;;;11.00;83.20;;;;;;5095123;28;19919;-29
2023/02/04 11:29:41;;;;;;;;;;;11.00;83.10;;;;;;5095214;28;19912;-36
2023/02/04 11:32:26;;;;;;;;;;;11.00;83.10;;;;;;5095105;28;20061;-31
2023/02/04 11:34:51;;;;;;;;;;;11.10;83.10;;;;;;5095059;28;19919;-31
2023/02/04 11:37:26;;;;;;;;;;;11.10;82.90;;;;;;5095168;28;19912;-31
2023/02/04 11:39:52;;;;;;;;;;;11.20;81.50;;;;;;5094943;28;19919;-28
2023/02/04 11:42:17;;;;;;;;;;;11.10;82.40;;;;;;5094931;28;20383;-32
2023/02/04 11:44:50;;;;;;;;;;;11.10;82.40;;;;;;5094837;28;20317;-31
2023/02/04 11:47:16;;;;;;;;;;;11.20;82.10;;;;;;5094822;28;19939;-29
2023/02/04 11:49:52;;;;;;;;;;;11.20;81.70;;;;;;5094760;28;20007;-31
2023/02/04 11:52:18;;;;;;;;;;;11.20;82.10;;;;;;5094701;28;19920;-30
2023/02/04 11:54:51;;;;;;;;;;;11.20;82.20;;;;;;5094767;28;19918;-29
2023/02/04 11:57:16;;;;;;;;;;;11.30;81.50;;;;;;5094548;28;19919;-35
2023/02/04 11:59:42;;;;;;;;;;;11.30;81.50;;;;;;5094556;28;19998;-32
2023/02/04 12:02:18;;;;;;;;;;;11.30;81.50;;;;;;5094593;28;19928;-31
2023/02/04 12:04:51;;;;;;;;;;;11.40;81.40;;;;;;5094597;28;19916;-31
2023/02/04 12:07:20;;;;;;;;;;;11.40;81.50;;;;;;5094782;28;19912;-31
2023/02/04 12:09:48;;;;;;;;;;;11.40;81.00;;;;;;5094393;28;19912;-33
2023/02/04 12:12:21;;;;;;;;;;;11.40;81.20;;;;;;5093577;28;19912;-32
2023/02/04 12:14:55;;;;;;;;;;;11.40;80.80;;;;;;5094561;28;19962;-32
2023/02/04 12:17:20;;;;;;;;;;;11.40;80.60;;;;;;5094528;28;19912;-30
2023/02/04 12:19:46;;;;;;;;;;;11.40;81.60;;;;;;5094249;28;20275;-35
2023/02/04 14:06:03;;;;;;;;;;;11.20;77.40;;;;;;5075503;23;20299;-30
2023/02/04 14:08:28;;;;;;;;;;;11.20;77.30;;;;;;5118242;23;19926;-34
2023/02/04 14:10:54;;;;;;;;;;;11.20;77.50;;;;;;4953125;29;19918;-35
2023/02/04 14:13:19;;;;;;;;;;;11.20;77.90;;;;;;4936834;29;20380;-36
2023/02/04 14:15:45;;;;;;;;;;;11.30;78.20;;;;;;4953853;29;19915;-36
2023/02/04 14:18:10;;;;;;;;;;;11.30;78.30;;;;;;4953963;29;19911;-36
2023/02/04 14:20:36;;;;;;;;;;;11.50;78.30;;;;;;4936842;29;19926;-35
2023/02/04 14:23:03;;;;;;;;;;;11.60;78.10;;;;;;4953819;29;20008;-36
2023/02/04 14:25:28;;;;;;;;;;;11.70;78.10;;;;;;4953808;29;19973;-36
2023/02/04 14:27:55;;;;;;;;;;;11.80;77.50;;;;;;4954092;29;20245;-36
2023/02/04 14:30:25;;;;;;;;;;;11.70;77.40;;;;;;4954187;29;19910;-36
2023/02/04 14:32:51;;;;;;;;;;;11.70;77.70;;;;;;4953950;29;20006;-37
2023/02/04 14:35:17;;;;;;;;;;;11.70;78.00;;;;;;4953263;28;20006;-35
2023/02/04 14:37:42;;;;;;;;;;;11.70;78.10;;;;;;4954242;29;19911;-36
2023/02/04 14:40:09;;;;;;;;;;;11.70;78.10;;;;;;4954217;29;20357;-34
2023/02/04 14:42:34;;;;;;;;;;;11.70;78.10;;;;;;4953915;29;20001;-35
2023/02/04 14:45:04;;;;;;;;;;;11.70;78.10;;;;;;4953724;29;20026;-36
2023/02/04 14:47:30;;;;;;;;;;;11.70;77.80;;;;;;4954080;29;20332;-37
2023/02/04 14:49:55;;;;;;;;;;;11.70;77.30;;;;;;4953752;29;20129;-34
2023/02/04 14:52:21;;;;;;;;;;;11.70;77.70;;;;;;4953764;29;20365;-36
2023/02/04 14:54:46;;;;;;;;;;;11.60;77.70;;;;;;4953711;29;20010;-35
2023/02/04 14:57:12;;;;;;;;;;;11.60;77.80;;;;;;4953987;29;19965;-37
2023/02/04 14:59:38;;;;;;;;;;;11.60;77.60;;;;;;4953875;29;20224;-35
2023/02/04 15:02:03;;;;;;;;;;;11.60;77.80;;;;;;4953883;29;20288;-38
2023/02/04 15:04:29;;;;;;;;;;;11.60;78.10;;;;;;4953413;29;20053;-40
2023/02/04 15:06:56;;;;;;;;;;;11.60;78.30;;;;;;4953566;29;19974;-39
2023/02/04 15:09:22;;;;;;;;;;;11.70;78.30;;;;;;4953289;29;19918;-40
2023/02/04 15:11:47;;;;;;;;;;;11.70;78.20;;;;;;4953596;29;19910;-38
2023/02/04 15:14:13;;;;;;;;;;;11.70;78.00;;;;;;4953405;29;19917;-40
2023/02/04 15:16:39;;;;;;;;;;;11.70;78.30;;;;;;4953525;29;19911;-40
2023/02/04 15:19:04;;;;;;;;;;;11.60;78.30;;;;;;4953569;29;19918;-39
2023/02/04 15:21:30;;;;;;;;;;;11.60;78.50;;;;;;4953402;29;20362;-36
2023/02/04 15:23:55;;;;;;;;;;;11.60;78.50;;;;;;4953562;29;19915;-35
2023/02/04 15:26:23;;;;;;;;;;;11.60;78.30;;;;;;4953728;29;20278;-37
2023/02/04 15:28:49;;;;;;;;;;;11.50;78.20;;;;;;4953409;29;19911;-35
2023/02/04 15:31:15;;;;;;;;;;;11.50;78.40;;;;;;4953314;29;20117;-35
2023/02/04 15:33:40;;;;;;;;;;;11.50;78.50;;;;;;4953578;29;19910;-41
2023/02/04 15:36:06;;;;;;;;;;;11.50;78.40;;;;;;4953233;29;19926;-35
2023/02/04 15:38:31;;;;;;;;;;;11.50;78.40;;;;;;4953321;29;19910;-38
2023/02/04 15:40:57;;;;;;;;;;;11.40;78.30;;;;;;4953477;29;20080;-36
2023/02/04 15:43:22;;;;;;;;;;;11.40;78.30;;;;;;4953506;29;19917;-36
2023/02/04 15:45:48;;;;;;;;;;;11.40;78.40;;;;;;4954701;28;20229;-36
2023/02/04 15:48:14;;;;;;;;;;;11.40;78.50;;;;;;4957074;29;19911;-37
2023/02/04 15:50:39;;;;;;;;;;;11.30;78.40;;;;;;4956543;29;20010;-38
2023/02/04 15:53:05;;;;;;;;;;;11.30;78.20;;;;;;4956508;29;19961;-36
2023/02/04 15:55:31;;;;;;;;;;;11.30;78.40;;;;;;4956541;29;19907;-37
2023/02/04 15:57:56;;;;;;;;;;;11.30;78.50;;;;;;4956803;29;19944;-36
2023/02/04 16:00:22;;;;;;;;;;;11.20;78.40;;;;;;4956458;29;19910;-37
2023/02/04 16:02:48;;;;;;;;;;;11.20;78.50;;;;;;4956268;29;19958;-36
2023/02/04 16:05:13;;;;;;;;;;;11.10;78.60;;;;;;4956163;29;19918;-37